Latest Weather Observations for Roseworthy

IDS60801

Issued at 10:11 pm CST Sunday 21 July 2019 (issued every 10 minutes, with the page automatically refreshed every 10 minutes)

About weather observations | Map of weather stations | Latest weather observations for SA | Other Formats
Station Details ID: 023122 Name: ROSEWORTHY AWS Lat: -34.51 Lon: 138.68 Height: 65.0 m
Data from the previous 72 hours. | See also: Recent months at Roseworthy
Date/Time
CST
Temp
°C
App
Temp
°C
Dew
Point
°C
Rel
Hum
%
Delta-T
°C
Wind Press
QNH
hPa
Press
MSL
hPa
Rain since
9am
mm
Dir  Spd
km/h
Gust
km/h
Spd
kts
Gust
kts
21/10:00pm 9.0 5.0 8.4 96 0.3 N 19 22 10 12 1014.7 1014.7 0.2
21/09:30pm 8.9 4.8 8.6 98 0.1 NNE 20 22 11 12 1014.9 1014.9 0.2
21/09:00pm 8.6 4.7 8.5 99 0.0 NNE 19 20 10 11 1014.9 1014.9 0.2
21/08:30pm 9.0 5.5 8.9 99 0.0 NNE 17 20 9 11 1015.0 1015.0 0.2
21/08:00pm 9.2 5.7 8.9 98 0.1 N 17 19 9 10 1015.0 1015.0 0.2
21/07:30pm 9.6 5.8 9.1 97 0.2 N 19 22 10 12 1015.0 1015.0 0.2
21/07:00pm 9.2 6.2 9.1 99 0.0 N 15 19 8 10 1014.8 1014.8 0.2
21/06:30pm 8.7 5.9 8.6 99 0.0 N 13 15 7 8 1014.4 1014.4 0.2
21/06:00pm 9.4 7.2 9.3 99 0.0 NNW 11 13 6 7 1014.0 1014.0 0.2
21/05:30pm 9.9 7.8 9.8 99 0.1 NW 11 13 6 7 1013.9 1013.9 0.2
21/05:00pm 12.8 10.3 10.9 88 1.0 NW 15 17 8 9 1013.8 1013.8 0.2
21/04:30pm 14.3 11.5 11.3 82 1.6 WNW 17 20 9 11 1013.7 1013.7 0.2
21/04:00pm 14.9 11.7 11.1 78 2.0 WNW 19 26 10 14 1013.5 1013.5 0.2
21/03:30pm 15.4 12.2 11.8 79 2.0 WNW 20 30 11 16 1013.3 1013.4 0.2
21/03:00pm 15.6 10.7 11.2 75 2.4 WNW 28 37 15 20 1013.3 1013.4 0.0
21/02:30pm 14.5 9.5 10.9 79 1.9 WNW 28 35 15 19 1013.2 1013.3 0.0
21/02:00pm 15.7 11.2 11.5 76 2.3 WNW 26 35 14 19 1013.0 1013.1 0.0
21/01:30pm 15.5 11.2 11.9 79 2.0 WNW 26 35 14 19 1013.2 1013.3 0.0
21/01:00pm 15.1 10.4 12.1 82 1.6 WNW 28 39 15 21 1013.7 1013.7 0.0
21/12:30pm 15.4 11.6 12.3 82 1.7 WNW 24 33 13 18 1014.0 1014.0 0.0
21/12:00pm 14.9 10.2 12.0 83 1.6 WNW 28 39 15 21 1014.3 1014.3 0.0
21/11:30am 14.6 9.9 11.9 84 1.5 WNW 28 35 15 19 1014.5 1014.5 0.0
21/11:00am 13.9 10.1 12.3 90 0.9 WNW 24 30 13 16 1014.8 1014.8 0.0
21/10:30am 13.2 10.2 12.6 96 0.3 NW 20 28 11 15 1014.8 1014.8 0.0
21/10:00am 12.4 8.9 12.2 99 0.1 NW 22 28 12 15 1014.8 1014.8 0.0
21/09:30am 11.4 8.2 11.4 100 0.0 NW 19 24 10 13 1014.5 1014.5 0.0
21/09:00am 9.9 7.1 9.9 100 0.0 NW 15 19 8 10 1014.3 1014.3 0.0
21/08:30am 8.9 5.4 8.9 100 0.0 NW 17 20 9 11 1013.9 1013.9 0.0
21/08:00am 9.0 5.0 9.0 100 0.0 WNW 20 28 11 15 1013.9 1013.9 0.0
21/07:30am 6.9 3.0 6.9 100 0.0 NNW 17 19 9 10 1013.5 1013.5 0.0
21/07:00am 7.2 2.9 7.2 100 0.0 NW 19 22 10 12 1013.0 1013.1 0.0
21/06:30am 7.3 3.4 7.3 100 0.0 NW 17 19 9 10 1012.7 1012.8 0.0
21/06:00am 7.0 3.5 7.0 100 0.0 NW 15 17 8 9 1012.2 1012.3 0.0
21/05:30am 7.7 4.7 7.7 100 0.0 NW 13 19 7 10 1012.1 1012.2 0.0
21/05:00am 8.9 5.1 8.9 100 0.0 WNW 19 20 10 11 1011.8 1011.9 0.0
21/04:30am 9.1 5.3 9.1 100 0.0 WNW 19 22 10 12 1011.6 1011.7 0.0
21/04:00am 10.0 6.3 10.0 100 0.0 WNW 20 24 11 13 1011.6 1011.7 0.0
21/03:30am 10.2 6.7 10.2 100 0.0 WNW 19 20 10 11 1011.4 1011.5 0.0
21/03:00am 11.4 8.2 11.4 100 0.0 WNW 19 22 10 12 1011.3 1011.4 0.0
21/02:30am 11.7 9.0 11.7 100 0.0 WNW 17 20 9 11 1011.2 1011.3 0.0
21/02:00am 12.4 9.3 12.2 99 0.1 WNW 20 28 11 15 1010.7 1010.8 0.0
21/01:30am 12.8 9.8 12.6 99 0.1 WNW 20 28 11 15 1010.8 1010.9 0.0
21/01:00am 13.2 10.0 13.2 100 0.0 WNW 22 32 12 17 1010.3 1010.4 0.0
21/12:30am 12.6 10.3 11.7 94 0.5 NNW 15 17 8 9 1010.1 1010.2 0.0
21/12:00am 13.1 10.0 10.3 83 1.5 NNW 17 20 9 11 1009.6 1009.7 0.0
 
Date/Time
CST
Temp
°C
App
Temp
°C
Dew
Point
°C
Rel
Hum
%
Delta-T
°C
Wind Press
QNH
hPa
Press
MSL
hPa
Rain since
9am
mm
Dir  Spd
km/h
Gust
km/h
Spd
kts
Gust
kts
20/11:30pm 13.4 9.8 9.8 79 1.9 N 19 24 10 13 1009.7 1009.8 0.0
20/11:00pm 13.9 9.7 9.9 77 2.1 N 22 26 12 14 1009.2 1009.3 0.0
20/10:30pm 14.0 9.2 8.8 71 2.6 NNW 24 32 13 17 1009.1 1009.2 0.0
20/10:00pm 15.0 6.9 6.8 58 4.0 NNW 39 50 21 27 1008.9 1009.0 0.0
20/09:30pm 15.9 8.2 6.9 55 4.5 NNW 37 52 20 28 1007.8 1007.9 0.0
20/09:00pm 15.3 9.0 7.3 59 4.0 N 30 39 16 21 1006.8 1006.9 0.0
20/08:30pm 13.7 7.4 7.2 65 3.2 N 30 39 16 21 1006.2 1006.3 0.0
20/08:00pm 13.9 7.7 7.7 66 3.1 N 30 37 16 20 1006.2 1006.3 0.0
20/07:30pm 14.5 7.4 8.0 65 3.3 NNE 35 44 19 24 1005.2 1005.3 0.0
20/07:00pm 14.7 8.1 8.6 67 3.1 N 33 41 18 22 1005.9 1006.0 0.0
20/06:30pm 14.7 8.4 9.1 69 2.9 NNE 32 39 17 21 1005.7 1005.8 0.0
20/06:00pm 14.7 10.0 9.3 70 2.8 NNE 24 28 13 15 1006.0 1006.1 0.0
20/05:30pm 15.8 11.3 9.9 68 3.1 N 24 32 13 17 1006.2 1006.3 0.0
20/05:00pm 16.3 12.1 11.0 71 2.8 N 24 28 13 15 1006.5 1006.6 0.0
20/04:30pm 17.9 13.4 11.5 66 3.5 N 26 32 14 17 1006.7 1006.8 0.0
20/04:00pm 18.8 14.2 12.3 66 3.6 N 28 33 15 18 1006.8 1006.9 0.0
20/03:30pm 19.5 14.9 12.3 63 4.0 N 28 37 15 20 1007.1 1007.2 0.0
20/03:00pm 19.4 11.7 11.4 60 4.4 N 43 56 23 30 1007.5 1007.6 0.0
20/02:30pm 19.4 11.6 11.9 62 4.2 N 44 59 24 32 1008.0 1008.1 0.0
20/02:00pm 19.5 11.8 12.0 62 4.2 N 44 57 24 31 1008.5 1008.6 0.0
20/01:30pm 19.4 11.8 11.7 61 4.3 N 43 54 23 29 1009.1 1009.2 0.0
20/01:00pm 19.3 12.2 12.3 64 3.9 N 41 52 22 28 1009.6 1009.7 0.0
20/12:30pm 18.8 11.1 12.1 65 3.7 N 44 56 24 30 1010.3 1010.4 0.0
20/12:00pm 18.1 9.9 11.7 66 3.5 N 46 57 25 31 1011.0 1011.1 0.0
20/11:30am 17.8 10.9 11.6 67 3.4 N 39 46 21 25 1011.8 1011.9 0.0
20/11:00am 17.4 10.8 11.4 68 3.3 N 37 48 20 26 1012.5 1012.6 0.0
20/10:30am 16.4 11.1 11.3 72 2.8 N 30 39 16 21 1012.9 1013.0 0.0
20/10:00am 15.3 10.2 10.7 74 2.4 N 28 35 15 19 1013.3 1013.4 0.0
20/09:30am 13.5 8.1 9.4 76 2.1 N 28 33 15 18 1013.7 1013.7 0.0
20/09:00am 12.3 6.6 8.4 77 1.9 N 28 35 15 19 1013.9 1013.9 0.0
20/08:30am 11.0 4.2 7.1 77 1.9 N 32 41 17 22 1014.0 1014.0 0.0
20/08:00am 10.4 3.5 6.5 77 1.8 N 32 39 17 21 1014.1 1014.1 0.0
20/07:30am 10.0 2.9 6.3 78 1.7 N 33 39 18 21 1014.2 1014.2 0.0
20/07:00am 10.1 3.0 6.4 78 1.7 N 33 43 18 23 1014.3 1014.3 0.0
20/06:30am 9.7 2.8 6.6 81 1.5 N 32 39 17 21 1014.4 1014.4 0.0
20/06:00am 9.5 3.1 6.8 83 1.3 N 30 35 16 19 1014.4 1014.4 0.0
20/05:30am 9.4 3.4 7.0 85 1.1 NNE 28 33 15 18 1014.5 1014.5 0.0
20/05:00am 9.3 2.9 6.9 85 1.1 NNE 30 37 16 20 1014.6 1014.6 0.0
20/04:30am 9.6 3.2 7.0 84 1.2 NNE 30 37 16 20 1014.6 1014.6 0.0
20/04:00am 9.5 3.5 6.9 84 1.2 NNE 28 35 15 19 1014.9 1014.9 0.0
20/03:30am 9.9 3.9 7.2 83 1.3 NNE 28 35 15 19 1015.1 1015.1 0.0
20/03:00am 9.9 3.9 7.2 83 1.3 NNE 28 33 15 18 1015.4 1015.4 0.0
20/02:30am 10.2 3.8 7.1 81 1.5 NNE 30 37 16 20 1015.7 1015.7 0.0
20/02:00am 9.7 4.1 7.1 84 1.2 NNE 26 32 14 17 1016.0 1016.0 0.0
20/01:30am 9.9 4.0 7.3 84 1.2 NNE 28 35 15 19 1016.2 1016.2 0.0
20/01:00am 10.0 4.1 7.4 84 1.2 NNE 28 35 15 19 1016.4 1016.4 0.0
20/12:30am 10.1 4.6 7.7 85 1.2 NNE 26 32 14 17 1016.8 1016.8 0.0
20/12:00am 9.4 3.9 7.7 89 0.8 NNE 26 32 14 17 1017.1 1017.1 0.0
 
Date/Time
CST
Temp
°C
App
Temp
°C
Dew
Point
°C
Rel
Hum
%
Delta-T
°C
Wind Press
QNH
hPa
Press
MSL
hPa
Rain since
9am
mm
Dir  Spd
km/h
Gust
km/h
Spd
kts
Gust
kts
19/11:30pm 9.9 4.1 8.0 88 0.9 NNE 28 33 15 18 1017.4 1017.5 0.0
19/11:00pm 9.7 4.3 8.0 89 0.8 NNE 26 30 14 16 1017.6 1017.7 0.0
19/10:30pm 9.3 5.2 8.7 96 0.3 NE 20 28 11 15 1017.7 1017.8 0.0
19/10:00pm 7.5 3.3 7.4 99 0.0 NE 19 24 10 13 1018.0 1018.1 0.0
19/09:30pm 7.4 3.0 7.3 99 0.0 NE 20 22 11 12 1018.2 1018.3 0.0
19/09:00pm 7.8 3.5 7.7 99 0.0 NE 20 24 11 13 1018.3 1018.4 0.0
19/08:30pm 7.9 3.6 7.8 99 0.0 NE 20 24 11 13 1018.4 1018.5 0.0
19/08:00pm 7.7 3.6 7.7 100 0.0 NE 19 20 10 11 1018.5 1018.6 0.0
19/07:30pm 8.1 4.1 8.1 100 0.0 NE 19 20 10 11 1018.3 1018.4 0.0
19/07:00pm 8.1 4.4 8.1 100 0.0 NE 17 17 9 9 1018.3 1018.4 0.0
19/06:30pm 7.9 4.6 7.9 100 0.0 NE 15 17 8 9 1018.2 1018.3 0.0
19/06:00pm 8.7 5.6 8.7 100 0.0 NE 15 15 8 8 1018.1 1018.2 0.0
19/05:30pm 11.3 9.6 11.3 100 0.0 NNE 11 13 6 7 1018.0 1018.1 0.0
19/05:00pm 14.3 13.3 13.5 95 0.4 N 11 13 6 7 1018.2 1018.3 0.0
19/04:30pm 15.8 14.2 14.0 89 1.0 N 15 17 8 9 1018.4 1018.5 0.0
19/04:00pm 16.8 15.8 14.6 87 1.3 NNW 13 17 7 9 1018.3 1018.4 0.0
19/03:30pm 17.3 15.3 14.9 86 1.4 NNW 19 24 10 13 1018.4 1018.5 0.0
19/03:00pm 17.4 15.0 14.5 83 1.7 NW 20 26 11 14 1018.6 1018.7 0.0
19/02:30pm 17.6 16.1 15.2 86 1.4 NNW 17 20 9 11 1018.6 1018.7 0.0
19/02:00pm 17.4 15.4 15.0 86 1.4 NNW 19 22 10 12 1018.8 1018.9 0.0
19/01:30pm 17.0 14.6 14.3 84 1.5 NNW 20 26 11 14 1019.2 1019.3 0.0
19/01:00pm 17.0 14.7 14.6 86 1.4 NNW 20 26 11 14 1019.5 1019.6 0.0
19/12:30pm 16.7 14.5 14.9 89 1.0 NNW 20 24 11 13 1019.8 1019.9 0.0
19/12:00pm 16.0 13.7 14.7 92 0.7 N 20 26 11 14 1020.6 1020.7 0.0
19/11:30am 15.3 12.9 13.8 91 0.8 NNW 19 24 10 13 1021.2 1021.3 0.0
19/11:00am 14.5 11.6 12.9 90 0.9 N 20 24 11 13 1021.5 1021.6 0.0
19/10:30am 14.1 11.2 13.9 99 0.1 N 22 26 12 14 1021.8 1021.9 0.0
19/10:00am 12.8 9.8 12.6 99 0.1 N 20 28 11 15 1021.8 1021.9 0.0
19/09:30am 11.4 8.0 11.4 100 0.0 N 20 24 11 13 1021.7 1021.8 0.0
19/09:00am 9.7 6.8 9.7 100 0.0 NNE 15 20 8 11 1021.6 1021.7 0.2
19/08:30am 7.9 4.2 7.9 100 0.0 NNE 17 20 9 11 1021.5 1021.6 0.2
19/08:00am 6.5 2.1 6.5 100 0.0 NNE 19 20 10 11 1021.3 1021.4 0.2
19/07:30am 5.7 1.5 5.7 100 0.0 NNE 17 20 9 11 1021.1 1021.2 0.2
19/07:00am 5.5 1.3 5.5 100 0.0 NNE 17 19 9 10 1021.0 1021.1 0.2
19/06:30am 5.1 0.8 5.1 100 0.0 NNE 17 20 9 11 1020.7 1020.8 0.2
19/06:00am 4.7 1.4 4.7 100 0.0 NE 11 15 6 8 1020.6 1020.7 0.2
19/05:30am 5.0 2.2 5.0 100 0.0 E 9 11 5 6 1020.5 1020.6 0.2
19/05:00am 5.6 2.5 5.6 100 0.0 E 11 17 6 9 1020.3 1020.4 0.2
19/04:30am 5.0 2.5 5.0 100 0.0 NNE 7 9 4 5 1020.1 1020.2 0.2
19/04:00am 5.7 3.4 5.7 100 0.0 NNE 7 9 4 5 1020.0 1020.1 0.2
19/03:30am 6.1 2.4 6.1 100 0.0 N 15 17 8 9 1020.1 1020.2 0.2
19/03:00am 6.1 1.6 6.1 100 0.0 N 19 20 10 11 1020.1 1020.2 0.2
19/02:30am 5.7 1.5 5.7 100 0.0 N 17 19 9 10 1020.2 1020.3 0.2
19/02:00am 5.7 1.9 5.7 100 0.0 N 15 17 8 9 1020.3 1020.4 0.2
19/01:30am 6.0 1.9 6.0 100 0.0 N 17 19 9 10 1020.3 1020.4 0.2
19/01:00am 6.8 2.5 6.8 100 0.0 N 19 24 10 13 1020.4 1020.5 0.2
19/12:30am 7.0 2.5 7.0 100 0.0 N 20 22 11 12 1020.6 1020.7 0.2
19/12:00am 7.4 3.2 7.4 100 0.0 N 19 20 10 11 1020.8 1020.9 0.0
 
Date/Time
CST
Temp
°C
App
Temp
°C
Dew
Point
°C
Rel
Hum
%
Delta-T
°C
Wind Press
QNH
hPa
Press
MSL
hPa
Rain since
9am
mm
Dir  Spd
km/h
Gust
km/h
Spd
kts
Gust
kts
18/11:30pm 7.8 4.1 7.8 100 0.0 N 17 19 9 10 1020.8 1020.9 0.0
18/11:00pm 6.3 2.6 6.3 100 0.0 N 15 15 8 8 1020.8 1020.9 0.0
18/10:30pm 6.6 2.6 6.6 100 0.0 NNE 17 17 9 9 1020.8 1020.9 0.0

Other formats

Comma delimited format used in spreadsheet applications
http://www.bom.gov.au/fwo/IDS60801/IDS60801.95671.axf

JavaScript Object Notation format (JSON) in row-major order
http://www.bom.gov.au/fwo/IDS60801/IDS60801.95671.json

Data quality

Most of these data are generated automatically and are frequently updated. Quality checks on data are not normally performed. It is possible for incorrect values to appear. Refer to information at About Latest Weather Observations and please check the disclaimer before using these data.